createdAt,value
2018-08-31T00:01:24.866Z,97329.21
2018-08-31T00:06:47.015Z,97326.22
2018-08-31T00:11:57.887Z,97317.34
2018-08-31T00:16:52.944Z,97325.34
2018-08-31T00:21:47.748Z,97324.31
2018-08-31T00:26:59.201Z,97315.39
2018-08-31T00:37:16.748Z,97308.11
2018-08-31T00:45:35.445Z,97314.01
2018-08-31T00:50:30.759Z,97315.44
2018-08-31T00:55:25.616Z,97306.61
2018-08-31T01:00:21.049Z,97312.34
2018-08-31T01:05:16.282Z,97300.86
2018-08-31T01:10:11.152Z,97297.56
2018-08-31T01:15:06.132Z,97295.72
2018-08-31T01:20:00.956Z,97284.39
2018-08-31T01:24:55.802Z,97277.61
2018-08-31T01:29:50.669Z,97266.78
2018-08-31T01:34:45.574Z,97257.34
2018-08-31T01:39:40.399Z,97248.17
2018-08-31T01:44:35.227Z,97238.41
2018-08-31T01:49:30.098Z,97234.48
2018-08-31T01:54:24.970Z,97230.41
2018-08-31T01:59:19.803Z,97251.92
2018-08-31T02:04:14.738Z,97280.13
2018-08-31T02:09:14.726Z,97279.32
2018-08-31T02:14:09.534Z,97292.57
2018-08-31T02:19:04.468Z,97293.40
2018-08-31T02:23:59.565Z,97282.86
2018-08-31T02:28:54.426Z,97303.27
2018-08-31T02:33:49.244Z,97314.20
2018-08-31T02:38:44.075Z,97305.42
2018-08-31T02:43:38.958Z,97296.05
2018-08-31T02:48:34.488Z,97299.62
2018-08-31T02:53:29.304Z,97281.73
2018-08-31T02:58:24.119Z,97281.30
2018-08-31T03:03:19.231Z,97270.98
2018-08-31T03:08:14.049Z,97255.23
2018-08-31T03:13:08.854Z,97248.82
2018-08-31T03:18:03.692Z,97254.31
2018-08-31T03:22:58.494Z,97243.13
2018-08-31T03:27:53.344Z,97241.13
2018-08-31T03:32:48.109Z,97260.06
2018-08-31T03:37:42.926Z,97263.55
2018-08-31T03:42:37.754Z,97267.15
2018-08-31T03:47:32.575Z,97266.38
2018-08-31T03:52:27.365Z,97266.48
2018-08-31T03:57:22.241Z,97253.23
2018-08-31T04:02:17.032Z,97236.41
2018-08-31T04:07:12.018Z,97241.98
2018-08-31T04:12:06.856Z,97260.08
2018-08-31T04:17:01.687Z,97255.84
2018-08-31T04:21:56.556Z,97254.41
2018-08-31T04:26:51.402Z,97250.86
2018-08-31T04:31:46.279Z,97243.67
2018-08-31T04:36:42.001Z,97257.16
2018-08-31T04:41:36.833Z,97257.98
2018-08-31T04:46:31.778Z,97243.77
2018-08-31T04:51:26.556Z,97205.66
2018-08-31T04:56:21.422Z,97214.03
2018-08-31T05:01:16.231Z,97230.90
2018-08-31T05:06:11.083Z,97228.57
2018-08-31T05:11:06.009Z,97209.77
2018-08-31T05:16:00.969Z,97198.11
2018-08-31T05:20:55.792Z,97199.59
2018-08-31T05:25:50.621Z,97178.55
2018-08-31T05:30:45.433Z,97151.75
2018-08-31T05:35:40.274Z,97163.35
2018-08-31T05:40:35.068Z,97146.61
2018-08-31T05:45:29.871Z,97147.36
2018-08-31T05:50:24.781Z,97180.02
2018-08-31T05:55:19.625Z,97183.63
2018-08-31T06:00:14.528Z,97194.41
2018-08-31T06:05:10.362Z,97200.66
2018-08-31T06:10:05.393Z,97198.27
2018-08-31T06:15:00.466Z,97185.05
2018-08-31T06:19:55.346Z,97189.80
2018-08-31T06:24:50.261Z,97207.53
2018-08-31T06:29:45.067Z,97212.08
2018-08-31T06:34:39.873Z,97217.65
2018-08-31T06:39:34.726Z,97221.05
2018-08-31T06:44:29.547Z,97219.06
2018-08-31T06:49:24.434Z,97219.78
2018-08-31T06:54:19.421Z,97211.35
2018-08-31T06:59:14.280Z,97220.03
2018-08-31T07:04:09.105Z,97227.05
2018-08-31T07:09:04.826Z,97225.30
2018-08-31T07:13:59.692Z,97215.47
2018-08-31T07:18:54.598Z,97212.43
2018-08-31T07:23:49.457Z,97209.26
2018-08-31T07:28:44.364Z,97209.59
2018-08-31T07:33:39.261Z,97211.33
2018-08-31T07:38:34.274Z,97211.11
2018-08-31T07:43:29.346Z,97214.16
2018-08-31T07:48:24.231Z,97218.19
2018-08-31T07:53:19.156Z,97214.59
2018-08-31T07:58:14.142Z,97208.61
2018-08-31T08:03:09.143Z,97210.06
2018-08-31T08:08:04.080Z,97222.47
2018-08-31T08:12:59.196Z,97228.07
2018-08-31T08:17:54.089Z,97231.55
2018-08-31T08:22:49.044Z,97230.47
2018-08-31T08:27:44.038Z,97222.77
2018-08-31T08:32:38.980Z,97227.91
2018-08-31T08:37:33.974Z,97224.93
2018-08-31T08:42:29.002Z,97223.45
2018-08-31T08:47:23.942Z,97214.94
2018-08-31T08:52:18.836Z,97218.83
2018-08-31T08:57:15.242Z,97223.06
2018-08-31T09:02:10.411Z,97211.97
2018-08-31T09:07:05.422Z,97204.13
2018-08-31T09:12:00.485Z,97202.20
2018-08-31T09:16:55.282Z,97204.95
2018-08-31T09:21:50.186Z,97210.98
2018-08-31T09:26:45.174Z,97205.97
2018-08-31T09:31:40.128Z,97219.30
2018-08-31T09:36:35.324Z,97226.02
2018-08-31T09:41:30.184Z,97227.13
2018-08-31T09:46:25.132Z,97225.28
2018-08-31T09:51:20.081Z,97232.98
2018-08-31T09:56:14.968Z,97241.39
2018-08-31T10:01:15.013Z,97240.20
2018-08-31T10:06:09.845Z,97252.97
2018-08-31T10:11:04.821Z,97255.34
2018-08-31T10:15:59.797Z,97255.19
2018-08-31T10:20:54.708Z,97247.13
2018-08-31T10:25:49.594Z,97241.52
2018-08-31T10:30:44.649Z,97236.59
2018-08-31T10:35:39.919Z,97236.16
2018-08-31T10:40:34.998Z,97234.22
2018-08-31T10:45:29.939Z,97238.13
2018-08-31T10:50:24.881Z,97248.39
2018-08-31T10:55:19.867Z,97249.46
2018-08-31T11:00:14.788Z,97242.68
2018-08-31T11:05:09.678Z,97234.75
2018-08-31T11:10:04.631Z,97229.30
2018-08-31T11:14:59.538Z,97239.06
2018-08-31T11:19:54.433Z,97245.96
2018-08-31T11:24:49.348Z,97242.94
2018-08-31T11:29:44.204Z,97253.73
2018-08-31T11:34:39.043Z,97250.33
2018-08-31T11:39:33.972Z,97245.77
2018-08-31T11:44:28.902Z,97248.23
2018-08-31T11:49:23.813Z,97257.50
2018-08-31T11:54:18.658Z,97257.66
2018-08-31T11:59:13.546Z,97244.32
2018-08-31T12:04:08.456Z,97244.73
2018-08-31T12:09:03.422Z,97246.70
2018-08-31T12:13:58.281Z,97245.81
2018-08-31T12:18:53.135Z,97247.26
2018-08-31T12:23:48.013Z,97241.73
2018-08-31T12:28:42.926Z,97235.42
2018-08-31T12:33:37.813Z,97225.00
2018-08-31T12:38:32.701Z,97231.95
2018-08-31T12:43:27.675Z,97240.95
2018-08-31T12:48:22.578Z,97238.51
2018-08-31T12:53:17.507Z,97235.48
2018-08-31T12:58:12.439Z,97244.66
2018-08-31T13:03:07.433Z,97235.96
2018-08-31T13:08:02.403Z,97222.08
2018-08-31T13:12:57.494Z,97221.03
2018-08-31T13:17:52.457Z,97225.77
2018-08-31T13:22:47.582Z,97224.72
2018-08-31T13:27:42.454Z,97225.06
2018-08-31T13:32:37.325Z,97215.39
2018-08-31T13:37:32.265Z,97216.94
2018-08-31T13:42:27.221Z,97221.70
2018-08-31T13:47:22.125Z,97223.24
2018-08-31T13:52:17.270Z,97214.20
2018-08-31T13:57:12.105Z,97226.75
2018-08-31T14:02:08.276Z,97225.56
2018-08-31T14:07:03.208Z,97213.45
2018-08-31T14:11:58.004Z,97218.87
2018-08-31T14:16:52.885Z,97209.83
2018-08-31T14:21:47.752Z,97214.40
2018-08-31T14:26:42.615Z,97224.50
2018-08-31T14:31:37.487Z,97222.89
2018-08-31T14:36:32.331Z,97232.12
2018-08-31T14:41:27.224Z,97229.58
2018-08-31T14:46:22.226Z,97220.91
2018-08-31T14:51:17.125Z,97227.70
2018-08-31T14:56:11.977Z,97215.11
2018-08-31T15:01:07.061Z,97211.20
2018-08-31T15:06:02.082Z,97207.99
2018-08-31T15:10:56.857Z,97215.42
2018-08-31T15:15:51.826Z,97222.82
2018-08-31T15:20:46.698Z,97227.20
2018-08-31T15:25:41.607Z,97229.84
2018-08-31T15:30:36.439Z,97234.99
2018-08-31T15:35:31.345Z,97240.97
2018-08-31T15:40:26.286Z,97255.00
2018-08-31T15:45:21.106Z,97255.68
2018-08-31T15:50:15.923Z,97258.85
2018-08-31T15:55:10.817Z,97259.19
2018-08-31T16:00:06.581Z,97257.30
2018-08-31T16:05:01.574Z,97256.56
2018-08-31T16:09:56.381Z,97255.91
2018-08-31T16:14:51.167Z,97252.80
2018-08-31T16:19:46.029Z,97261.91
2018-08-31T16:24:40.839Z,97259.29
2018-08-31T16:29:35.637Z,97262.25
2018-08-31T16:34:30.459Z,97275.67
2018-08-31T16:39:25.261Z,97273.52
2018-08-31T16:44:20.102Z,97282.44
2018-08-31T16:49:14.955Z,97282.59
2018-08-31T16:54:10.384Z,97278.40
2018-08-31T16:59:05.486Z,97289.69
2018-08-31T17:04:00.309Z,97291.70
2018-08-31T17:08:55.175Z,97287.16
2018-08-31T17:13:49.997Z,97289.84
2018-08-31T17:18:44.837Z,97294.14
2018-08-31T17:23:39.753Z,97293.73
2018-08-31T17:28:39.782Z,97303.59
2018-08-31T17:33:39.616Z,97298.45
2018-08-31T17:38:34.501Z,97300.89
2018-08-31T17:43:29.424Z,97305.95
2018-08-31T17:48:24.338Z,97310.13
2018-08-31T17:53:19.285Z,97320.66
2018-08-31T17:58:14.177Z,97318.22
2018-08-31T18:03:09.132Z,97320.97
2018-08-31T18:08:04.097Z,97336.62
2018-08-31T18:12:59.166Z,97330.16
2018-08-31T18:17:54.120Z,97333.67
2018-08-31T18:22:49.068Z,97340.72
2018-08-31T18:27:44.059Z,97347.62
2018-08-31T18:32:40.897Z,97351.54
2018-08-31T18:37:34.428Z,97353.73
2018-08-31T18:42:29.760Z,97361.25
2018-08-31T18:47:24.829Z,97378.33
2018-08-31T18:52:19.894Z,97378.81
2018-08-31T18:57:14.810Z,97387.66
2018-08-31T19:02:09.763Z,97397.31
2018-08-31T19:07:04.798Z,97401.41
2018-08-31T19:11:59.836Z,97411.37
2018-08-31T19:16:54.806Z,97411.67
2018-08-31T19:21:49.790Z,97407.13
2018-08-31T19:26:44.722Z,97409.02
2018-08-31T19:31:39.647Z,97406.69
2018-08-31T19:36:34.538Z,97411.41
2018-08-31T19:41:29.520Z,97422.03
2018-08-31T19:46:24.421Z,97442.25
2018-08-31T19:51:19.326Z,97434.06
2018-08-31T19:56:14.261Z,97433.19
2018-08-31T20:01:09.132Z,97431.80
2018-08-31T20:06:04.062Z,97432.39
2018-08-31T20:10:58.888Z,97432.53
2018-08-31T20:15:53.759Z,97433.71
2018-08-31T20:20:48.700Z,97436.98
2018-08-31T20:25:43.803Z,97444.75
2018-08-31T20:30:38.675Z,97445.52
2018-08-31T20:35:33.474Z,97443.68
2018-08-31T20:40:28.287Z,97441.53
2018-08-31T20:45:23.153Z,97445.00
2018-08-31T20:50:17.983Z,97450.52
2018-08-31T20:55:12.780Z,97458.30
2018-08-31T21:00:08.170Z,97470.67
2018-08-31T21:05:03.012Z,97467.79
2018-08-31T21:09:57.807Z,97464.38
2018-08-31T21:14:52.665Z,97459.00
2018-08-31T21:19:47.476Z,97466.22
2018-08-31T21:24:42.427Z,97468.38
2018-08-31T21:29:37.220Z,97463.94
2018-08-31T21:34:32.010Z,97453.27
2018-08-31T21:39:26.805Z,97456.16
2018-08-31T21:44:21.660Z,97459.55
2018-08-31T21:49:16.489Z,97461.19
2018-08-31T21:54:11.298Z,97466.33
2018-08-31T21:59:06.281Z,97469.38
2018-08-31T22:04:01.127Z,97463.52
2018-08-31T22:08:56.021Z,97456.19
2018-08-31T22:13:50.807Z,97458.86
2018-08-31T22:18:45.641Z,97447.36
2018-08-31T22:23:40.430Z,97439.66
2018-08-31T22:28:35.242Z,97447.09
2018-08-31T22:33:30.138Z,97450.48
2018-08-31T22:38:24.961Z,97458.62
2018-08-31T22:43:20.797Z,97461.53
2018-08-31T22:48:15.625Z,97461.59
2018-08-31T22:53:10.441Z,97465.52
2018-08-31T22:58:05.305Z,97468.27
2018-08-31T23:03:00.157Z,97466.59
2018-08-31T23:08:00.083Z,97460.56
2018-08-31T23:12:54.952Z,97453.05
2018-08-31T23:17:51.801Z,97454.86
2018-08-31T23:22:46.685Z,97448.98
2018-08-31T23:27:41.519Z,97445.70
2018-08-31T23:32:36.369Z,97448.50
2018-08-31T23:37:31.214Z,97446.21
2018-08-31T23:42:26.062Z,97438.70
2018-08-31T23:47:20.874Z,97447.29
2018-08-31T23:52:15.713Z,97444.27
2018-08-31T23:57:10.582Z,97441.42
